PWSweather.com
Personal Weather Stations
Station Observations
MUTNCOVE
Mouton Cove, Abbeville, LA 70510

Mouton CoveAbbeville, LA 70510

Lat: 29.875016, Lon: -92.218675

Elevation: 32

Station Type: Acurite 5-in-1

http://www.moutoncoveweather.com/

Latest ConditionsUpdated 11:00:01 PM CDT Tuesday, Aug 20, 2019
Currently Today's Max Today's Min Today's Average
Temperature 77.2°F25.1°C 92.6°F33.7°C 76.5°F24.7°C 81.4°F27.4°C
Dew Point 76.9°F24.9°C 83.2°F28.4°C 76.2°F24.6°C 78.5°F25.8°C
Winds Calm Calm 6.9 mph -11.1 kmh - - 1.7 mph 2.7 kmh
Wind Gusts -- 9.2 mph14.8 kmh - -
Humidity 99% 99% 66% 91%
Pressure 30.17 in1021.7 mb 30.20 in1022.7 mb 30.12 in1020.0 mb -
Precipitation - 0.01 in0.3 mm - -
Hour Temp Dew Point Humidity Winds Wind Gusts Pressure Precip Precip Rate Daily Precip Total
11:00 PM 77.2°F25.1°C 76.9°F24.9°C 99% Calm Calm -- 30.17 in1021.7 mb - 0.00 in0.0 mm 0.01 in0.3 mm
10:30 PM 77.5°F25.3°C 77.2°F25.1°C 99% Calm Calm -- 30.17 in1021.7 mb - 0.00 in0.0 mm 0.01 in0.3 mm
10:00 PM 77.7°F25.4°C 77.4°F25.2°C 99% Calm Calm -- 30.16 in1021.3 mb - 0.00 in0.0 mm 0.01 in0.3 mm
09:30 PM 78.3°F25.7°C 78.0°F25.6°C 99% Calm Calm -- 30.15 in1021.0 mb - 0.00 in0.0 mm 0.01 in0.3 mm
09:00 PM 78.6°F25.9°C 78.3°F25.7°C 99% Calm Calm -- 30.14 in1020.7 mb - 0.00 in0.0 mm 0.01 in0.3 mm
08:30 PM 79.4°F26.3°C 79.1°F26.2°C 99% Calm Calm -- 30.13 in1020.3 mb - 0.00 in0.0 mm 0.01 in0.3 mm
08:00 PM 81.0°F27.2°C 79.1°F26.2°C 94% Calm Calm -- 30.13 in1020.3 mb - 0.00 in0.0 mm 0.01 in0.3 mm
07:30 PM 82.9°F28.3°C 79.7°F26.5°C 90% 2.3 mph SW3.7 kmh SW 3.5 mph5.6 kmh 30.14 in1020.7 mb - 0.00 in0.0 mm 0.01 in0.3 mm
07:00 PM 87.1°F30.6°C 80.2°F26.8°C 80% 2.3 mph SW3.7 kmh SW 2.3 mph3.7 kmh 30.13 in1020.3 mb - 0.00 in0.0 mm 0.01 in0.3 mm
06:30 PM 90.0°F32.2°C 79.8°F26.6°C 72% 3.5 mph WSW5.6 kmh WSW 3.5 mph5.6 kmh 30.14 in1020.7 mb - 0.00 in0.0 mm 0.01 in0.3 mm
06:00 PM 87.5°F30.8°C 79.0°F26.1°C 76% 3.5 mph SW5.6 kmh SW 4.6 mph7.4 kmh 30.14 in1020.7 mb - 0.00 in0.0 mm 0.01 in0.3 mm
05:30 PM 86.9°F30.5°C 78.8°F26.0°C 77% 4.6 mph SW7.4 kmh SW 5.8 mph9.3 kmh 30.14 in1020.7 mb - 0.00 in0.0 mm 0.01 in0.3 mm
05:00 PM 84.7°F29.3°C 78.6°F25.9°C 82% 6.9 mph SW11.1 kmh SW 9.2 mph14.8 kmh 30.14 in1020.7 mb - 0.00 in0.0 mm 0.01 in0.3 mm
04:30 PM 86.2°F30.1°C 80.1°F26.7°C 82% 5.8 mph W9.3 kmh W 6.9 mph11.1 kmh 30.15 in1021.0 mb - 0.00 in0.0 mm 0.01 in0.3 mm
04:00 PM 83.7°F28.7°C 78.4°F25.8°C 84% 6.9 mph SW11.1 kmh SW 8.1 mph13.0 kmh 30.16 in1021.3 mb - 0.00 in0.0 mm 0.01 in0.3 mm
03:30 PM 87.8°F31.0°C 80.5°F26.9°C 79% 3.5 mph SSW5.6 kmh SSW 3.5 mph5.6 kmh 30.16 in1021.3 mb - 0.00 in0.0 mm 0.01 in0.3 mm
03:00 PM 88.7°F31.5°C 80.6°F27.0°C 77% 2.3 mph ESE3.7 kmh ESE 2.3 mph3.7 kmh 30.16 in1021.3 mb - 0.00 in0.0 mm 0.01 in0.3 mm
02:30 PM 91.0°F32.8°C 80.2°F26.8°C 71% 2.3 mph SE3.7 kmh SE 2.3 mph3.7 kmh 30.16 in1021.3 mb - 0.00 in0.0 mm 0.01 in0.3 mm
02:00 PM 92.6°F33.7°C 79.6°F26.4°C 66% 2.3 mph E3.7 kmh E 2.3 mph3.7 kmh 30.17 in1021.7 mb - 0.01 in0.3 mm 0.01 in0.3 mm
01:30 PM 87.3°F30.7°C 78.8°F26.0°C 76% 2.3 mph S3.7 kmh S 2.3 mph3.7 kmh 30.18 in1022.0 mb - 0.01 in0.3 mm 0.01 in0.3 mm
01:00 PM 82.1°F27.8°C 79.2°F26.2°C 91% Calm Calm -- 30.19 in1022.4 mb - 0.01 in0.3 mm 0.01 in0.3 mm
12:30 PM 80.8°F27.1°C 78.9°F26.1°C 94% Calm Calm 2.3 mph3.7 kmh 30.19 in1022.4 mb - 0.00 in0.0 mm 0.00 in0.0 mm
12:00 PM 81.0°F27.2°C 77.8°F25.4°C 90% 5.8 mph W9.3 kmh W 6.9 mph11.1 kmh 30.18 in1022.0 mb - 0.00 in0.0 mm 0.00 in0.0 mm
11:30 AM 79.4°F26.3°C 79.1°F26.2°C 99% 4.6 mph SW7.4 kmh SW 5.8 mph9.3 kmh 30.20 in1022.7 mb - 0.00 in0.0 mm 0.00 in0.0 mm
11:00 AM 82.0°F27.8°C 79.8°F26.6°C 93% 6.9 mph W11.1 kmh W 8.1 mph13.0 kmh 30.18 in1022.0 mb - 0.00 in0.0 mm 0.00 in0.0 mm
10:30 AM 89.8°F32.1°C 81.6°F27.6°C 77% Calm Calm -- 30.17 in1021.7 mb - 0.00 in0.0 mm 0.00 in0.0 mm
10:00 AM 87.6°F30.9°C 82.5°F28.1°C 85% 2.3 mph NE3.7 kmh NE 3.5 mph5.6 kmh 30.18 in1022.0 mb - 0.00 in0.0 mm 0.00 in0.0 mm
09:30 AM 86.8°F30.4°C 83.2°F28.4°C 89% 2.3 mph SE3.7 kmh SE 3.5 mph5.6 kmh 30.18 in1022.0 mb - 0.00 in0.0 mm 0.00 in0.0 mm
09:00 AM 82.5°F28.1°C 81.6°F27.6°C 97% 3.5 mph E5.6 kmh E 3.5 mph5.6 kmh 30.18 in1022.0 mb - 0.00 in0.0 mm 0.00 in0.0 mm
08:30 AM 79.8°F26.6°C 79.5°F26.4°C 99% 3.5 mph SSE5.6 kmh SSE 3.5 mph5.6 kmh 30.18 in1022.0 mb - 0.00 in0.0 mm 0.00 in0.0 mm
08:00 AM 79.7°F26.5°C 79.4°F26.3°C 99% 1.2 mph E1.9 kmh E 1.2 mph1.9 kmh 30.17 in1021.7 mb - 0.00 in0.0 mm 0.00 in0.0 mm
07:30 AM 77.9°F25.5°C 77.6°F25.3°C 99% Calm Calm -- 30.16 in1021.3 mb - 0.00 in0.0 mm 0.00 in0.0 mm
07:00 AM 77.0°F25.0°C 76.7°F24.8°C 99% Calm Calm -- 30.15 in1021.0 mb - 0.00 in0.0 mm 0.00 in0.0 mm
06:30 AM 76.8°F24.9°C 76.5°F24.7°C 99% Calm Calm -- 30.15 in1021.0 mb - 0.00 in0.0 mm 0.00 in0.0 mm
06:00 AM 76.8°F24.9°C 76.5°F24.7°C 99% Calm Calm -- 30.14 in1020.7 mb - 0.00 in0.0 mm 0.00 in0.0 mm
05:30 AM 76.8°F24.9°C 76.5°F24.7°C 99% Calm Calm -- 30.14 in1020.7 mb - 0.00 in0.0 mm 0.00 in0.0 mm
05:00 AM 76.5°F24.7°C 76.2°F24.6°C 99% Calm Calm -- 30.14 in1020.7 mb - 0.00 in0.0 mm 0.00 in0.0 mm
04:30 AM 76.5°F24.7°C 76.2°F24.6°C 99% Calm Calm -- 30.12 in1020.0 mb - 0.00 in0.0 mm 0.00 in0.0 mm
04:00 AM 76.8°F24.9°C 76.5°F24.7°C 99% Calm Calm -- 30.12 in1020.0 mb - 0.00 in0.0 mm 0.00 in0.0 mm
03:30 AM 76.8°F24.9°C 76.5°F24.7°C 99% Calm Calm -- 30.13 in1020.3 mb - 0.00 in0.0 mm 0.00 in0.0 mm
03:00 AM 76.6°F24.8°C 76.3°F24.6°C 99% Calm Calm -- 30.12 in1020.0 mb - 0.00 in0.0 mm 0.00 in0.0 mm
02:30 AM 77.0°F25.0°C 76.7°F24.8°C 99% Calm Calm -- 30.13 in1020.3 mb - 0.00 in0.0 mm 0.00 in0.0 mm
02:00 AM 76.8°F24.9°C 76.5°F24.7°C 99% Calm Calm -- 30.14 in1020.7 mb - 0.00 in0.0 mm 0.00 in0.0 mm
01:30 AM 77.0°F25.0°C 76.7°F24.8°C 99% Calm Calm -- 30.12 in1020.0 mb - 0.00 in0.0 mm 0.00 in0.0 mm
01:00 AM 76.9°F24.9°C 76.6°F24.8°C 99% 1.2 mph ESE1.9 kmh ESE 1.2 mph1.9 kmh 30.12 in1020.0 mb - 0.00 in0.0 mm 0.00 in0.0 mm
12:30 AM 76.5°F24.7°C 76.2°F24.6°C 99% Calm Calm -- 30.13 in1020.3 mb - 0.00 in0.0 mm 0.00 in0.0 mm
12:00 AM 76.6°F24.8°C 76.3°F24.6°C 99% 2.3 mph ESE3.7 kmh ESE 1.2 mph1.9 kmh 30.12 in1020.0 mb - 0.00 in0.0 mm 0.00 in0.0 mm